createdAt,value
2023-03-02T00:01:58.495Z,84.13
2023-03-02T00:04:33.423Z,83.91
2023-03-02T00:07:05.772Z,84.64
2023-03-02T00:09:34.325Z,83.92
2023-03-02T00:12:02.807Z,84.42
2023-03-02T00:14:31.219Z,83.75
2023-03-02T00:17:02.757Z,84.48
2023-03-02T00:19:31.090Z,84.67
2023-03-02T00:21:59.456Z,84.24
2023-03-02T00:24:27.787Z,84.61
2023-03-02T00:26:56.266Z,83.96
2023-03-02T00:29:24.596Z,84.88
2023-03-02T00:31:53.070Z,84.63
2023-03-02T00:34:22.966Z,84.22
2023-03-02T00:36:51.355Z,83.88
2023-03-02T00:39:20.109Z,84.66
2023-03-02T00:41:49.590Z,84.01
2023-03-02T00:44:18.686Z,84.72
2023-03-02T00:46:47.347Z,84.94
2023-03-02T00:49:15.772Z,84.01
2023-03-02T00:51:45.545Z,84.50
2023-03-02T00:54:14.294Z,84.34
2023-03-02T00:56:42.910Z,84.20
2023-03-02T00:59:26.716Z,84.08
2023-03-02T01:01:58.211Z,84.84
2023-03-02T01:04:29.762Z,85.08
2023-03-02T01:07:01.459Z,84.93
2023-03-02T01:09:30.060Z,84.50
2023-03-02T01:11:59.674Z,84.25
2023-03-02T01:14:28.702Z,84.13
2023-03-02T01:16:57.038Z,84.14
2023-03-02T01:19:25.761Z,84.84
2023-03-02T01:21:54.092Z,84.97
2023-03-02T01:24:23.937Z,84.27
2023-03-02T01:26:52.293Z,84.67
2023-03-02T01:29:21.012Z,84.46
2023-03-02T01:31:49.597Z,84.52
2023-03-02T01:34:18.064Z,84.99
2023-03-02T01:36:46.674Z,84.30
2023-03-02T01:39:16.201Z,84.75
2023-03-02T01:41:47.514Z,85.17
2023-03-02T01:44:42.103Z,84.91
2023-03-02T01:47:19.558Z,85.15
2023-03-02T01:49:52.284Z,85.17
2023-03-02T01:52:21.466Z,84.35
2023-03-02T01:54:51.741Z,84.28
2023-03-02T01:57:29.636Z,85.16
2023-03-02T02:00:08.581Z,85.34
2023-03-02T02:02:41.943Z,84.64
2023-03-02T02:05:11.212Z,84.43
2023-03-02T02:07:40.146Z,85.15
2023-03-02T02:10:11.212Z,84.71
2023-03-02T02:12:41.147Z,84.42
2023-03-02T02:15:10.819Z,85.01
2023-03-02T02:17:39.184Z,84.85
2023-03-02T02:20:24.070Z,84.54
2023-03-02T02:23:07.552Z,84.65
2023-03-02T02:25:47.237Z,85.45
2023-03-02T02:28:23.676Z,85.22
2023-03-02T02:31:03.564Z,85.22
2023-03-02T02:33:33.670Z,84.81
2023-03-02T02:36:09.346Z,85.17
2023-03-02T02:38:39.679Z,85.28
2023-03-02T02:41:14.299Z,85.59
2023-03-02T02:43:44.032Z,85.55
2023-03-02T02:46:14.017Z,85.60
2023-03-02T02:48:42.320Z,84.88
2023-03-02T02:51:19.300Z,84.65
2023-03-02T02:53:59.862Z,84.92
2023-03-02T02:56:32.602Z,85.11
2023-03-02T02:59:07.176Z,85.12
2023-03-02T03:01:36.308Z,85.35
2023-03-02T03:04:07.656Z,84.92
2023-03-02T03:06:42.658Z,85.61
2023-03-02T03:09:12.665Z,85.46
2023-03-02T03:11:43.949Z,85.83
2023-03-02T03:14:17.508Z,85.85
2023-03-02T03:16:48.428Z,85.29
2023-03-02T03:19:22.594Z,84.90
2023-03-02T03:21:53.567Z,84.58
2023-03-02T03:24:22.857Z,85.75
2023-03-02T03:26:51.873Z,85.75
2023-03-02T03:29:24.288Z,84.87
2023-03-02T03:31:53.424Z,85.46
2023-03-02T03:34:22.450Z,85.85
2023-03-02T03:36:50.801Z,84.99
2023-03-02T03:39:20.704Z,85.54
2023-03-02T03:41:49.016Z,85.00
2023-03-02T03:44:17.292Z,85.66
2023-03-02T03:46:47.109Z,86.14
2023-03-02T03:49:15.500Z,85.10
2023-03-02T03:51:43.794Z,85.14
2023-03-02T03:54:12.848Z,84.78
2023-03-02T03:56:44.928Z,85.51
2023-03-02T03:59:17.294Z,85.66
2023-03-02T04:01:50.451Z,85.88
2023-03-02T04:04:22.456Z,85.16
2023-03-02T04:06:51.390Z,86.26
2023-03-02T04:09:19.915Z,86.41
2023-03-02T04:11:54.762Z,85.94
2023-03-02T04:14:25.224Z,85.60
2023-03-02T04:16:55.309Z,85.87
2023-03-02T04:19:24.635Z,85.71
2023-03-02T04:21:55.994Z,85.92
2023-03-02T04:24:24.935Z,85.65
2023-03-02T04:26:53.661Z,86.41
2023-03-02T04:29:23.355Z,85.80
2023-03-02T04:31:51.943Z,86.63
2023-03-02T04:34:21.935Z,85.62
2023-03-02T04:36:50.270Z,85.52
2023-03-02T04:39:20.183Z,86.04
2023-03-02T04:41:50.384Z,86.19
2023-03-02T04:44:19.595Z,86.26
2023-03-02T04:46:49.099Z,85.87
2023-03-02T04:49:19.460Z,86.15
2023-03-02T04:51:51.252Z,86.67
2023-03-02T04:54:22.494Z,85.96
2023-03-02T04:56:51.697Z,85.98
2023-03-02T04:59:22.429Z,85.70
2023-03-02T05:01:51.444Z,86.15
2023-03-02T05:04:19.940Z,86.24
2023-03-02T05:06:49.707Z,87.02
2023-03-02T05:09:18.576Z,86.39
2023-03-02T05:11:46.991Z,86.02
2023-03-02T05:14:15.451Z,86.52
2023-03-02T05:16:43.890Z,86.18
2023-03-02T05:19:13.498Z,86.62
2023-03-02T05:21:42.825Z,86.63
2023-03-02T05:24:13.585Z,86.10
2023-03-02T05:26:42.778Z,86.14
2023-03-02T05:29:11.133Z,86.69
2023-03-02T05:31:42.174Z,86.37
2023-03-02T05:34:14.171Z,86.89
2023-03-02T05:36:42.537Z,86.78
2023-03-02T05:39:12.676Z,86.45
2023-03-02T05:41:42.428Z,86.60
2023-03-02T05:44:12.527Z,86.92
2023-03-02T05:46:41.234Z,87.28
2023-03-02T05:49:10.676Z,87.28
2023-03-02T05:51:39.012Z,87.09
2023-03-02T05:54:07.377Z,86.43
2023-03-02T05:56:37.196Z,86.53
2023-03-02T05:59:05.520Z,87.78
2023-03-02T06:01:34.249Z,87.54
2023-03-02T06:04:02.842Z,87.28
2023-03-02T06:06:33.862Z,87.21
2023-03-02T06:09:02.548Z,87.68
2023-03-02T06:11:31.034Z,86.62
2023-03-02T06:14:00.794Z,87.48
2023-03-02T06:16:29.162Z,87.53
2023-03-02T06:18:57.523Z,87.80
2023-03-02T06:21:25.914Z,87.56
2023-03-02T06:23:54.328Z,87.73
2023-03-02T06:26:22.652Z,87.83
2023-03-02T06:28:53.583Z,86.89
2023-03-02T06:31:23.939Z,87.30
2023-03-02T06:33:52.580Z,87.78
2023-03-02T06:36:21.391Z,86.78
2023-03-02T06:38:49.973Z,86.85
2023-03-02T06:41:18.329Z,87.18
2023-03-02T06:43:46.695Z,88.00
2023-03-02T06:46:15.228Z,87.52
2023-03-02T06:48:45.049Z,87.38
2023-03-02T06:51:13.793Z,87.58
2023-03-02T06:53:42.162Z,87.24
2023-03-02T06:56:10.890Z,87.17
2023-03-02T06:58:39.306Z,87.10
2023-03-02T07:01:08.950Z,88.01
2023-03-02T07:03:37.710Z,88.14
2023-03-02T07:06:08.025Z,88.01
2023-03-02T07:08:36.424Z,87.15
2023-03-02T07:11:07.568Z,87.01
2023-03-02T07:13:37.987Z,88.16
2023-03-02T07:16:09.657Z,88.42
2023-03-02T07:18:38.019Z,87.21
2023-03-02T07:21:07.952Z,87.50
2023-03-02T07:23:37.344Z,87.41
2023-03-02T07:26:08.541Z,87.32
2023-03-02T07:28:39.739Z,87.28
2023-03-02T07:31:09.188Z,87.81
2023-03-02T07:33:38.616Z,87.52
2023-03-02T07:36:10.008Z,87.14
2023-03-02T07:38:39.995Z,88.28
2023-03-02T07:41:09.912Z,86.89
2023-03-02T07:43:38.825Z,87.92
2023-03-02T07:46:07.570Z,87.25
2023-03-02T07:48:36.181Z,88.11
2023-03-02T07:51:07.656Z,86.91
2023-03-02T07:53:36.204Z,87.86
2023-03-02T07:56:08.940Z,87.61
2023-03-02T07:58:38.024Z,88.00
2023-03-02T08:01:06.807Z,86.94
2023-03-02T08:03:35.191Z,86.90
2023-03-02T08:06:09.928Z,87.75
2023-03-02T08:08:38.821Z,87.88
2023-03-02T08:11:09.047Z,87.79
2023-03-02T08:13:37.492Z,87.59
2023-03-02T08:16:09.153Z,87.68
2023-03-02T08:18:38.112Z,87.24
2023-03-02T08:21:15.018Z,87.31
2023-03-02T08:23:43.455Z,87.23
2023-03-02T08:26:14.772Z,87.72
2023-03-02T08:28:44.925Z,87.03
2023-03-02T08:31:14.717Z,87.19
2023-03-02T08:33:43.610Z,86.52
2023-03-02T08:36:16.716Z,86.70
2023-03-02T08:38:45.746Z,86.29
2023-03-02T08:41:17.252Z,86.36
2023-03-02T08:43:45.574Z,85.93
2023-03-02T08:46:17.141Z,86.10
2023-03-02T08:48:46.120Z,86.74
2023-03-02T08:51:18.298Z,86.79
2023-03-02T08:53:50.450Z,86.72
2023-03-02T08:56:21.950Z,86.41
2023-03-02T08:58:51.478Z,86.17
2023-03-02T09:01:22.414Z,86.15
2023-03-02T09:03:50.781Z,85.17
2023-03-02T09:06:20.603Z,85.79
2023-03-02T09:08:49.647Z,86.03
2023-03-02T09:11:18.052Z,85.38
2023-03-02T09:13:46.595Z,85.47
2023-03-02T09:16:16.061Z,84.69
2023-03-02T09:18:44.589Z,85.24
2023-03-02T09:21:12.888Z,85.30
2023-03-02T09:23:42.600Z,84.49
2023-03-02T09:26:11.058Z,85.14
2023-03-02T09:28:39.908Z,84.29
2023-03-02T09:31:09.843Z,84.20
2023-03-02T09:33:38.675Z,84.12
2023-03-02T09:36:08.469Z,84.02
2023-03-02T09:38:36.824Z,83.57
2023-03-02T09:41:44.524Z,83.46
2023-03-02T09:44:33.830Z,83.24
2023-03-02T09:47:06.650Z,83.31
2023-03-02T09:49:54.975Z,83.14
2023-03-02T09:52:32.645Z,82.56
2023-03-02T09:55:12.717Z,83.06
2023-03-02T09:57:43.208Z,82.63
2023-03-02T10:00:19.917Z,82.79
2023-03-02T10:02:52.492Z,82.35
2023-03-02T10:05:26.390Z,81.66
2023-03-02T10:07:57.850Z,81.78
2023-03-02T10:10:35.470Z,81.29
2023-03-02T10:13:23.808Z,80.67
2023-03-02T10:16:07.707Z,80.30
2023-03-02T10:18:41.569Z,80.70
2023-03-02T10:21:22.140Z,80.43
2023-03-02T10:23:57.800Z,80.68
2023-03-02T10:26:40.687Z,80.43
2023-03-02T10:29:40.862Z,80.07
2023-03-02T10:32:21.124Z,79.16
2023-03-02T10:34:51.136Z,79.19
2023-03-02T10:37:25.283Z,78.95
2023-03-02T10:39:53.774Z,78.88
2023-03-02T10:42:27.415Z,78.16
2023-03-02T10:45:04.432Z,78.32
2023-03-02T10:47:32.858Z,78.49
2023-03-02T10:50:01.204Z,78.66
2023-03-02T10:52:30.579Z,78.07
2023-03-02T10:55:08.404Z,78.06
2023-03-02T10:57:39.896Z,77.45
2023-03-02T11:00:22.923Z,77.07
2023-03-02T11:02:54.038Z,76.67
2023-03-02T11:05:31.396Z,76.14
2023-03-02T11:08:02.757Z,75.22
2023-03-02T11:10:34.376Z,75.99
2023-03-02T11:13:07.598Z,76.21
2023-03-02T11:15:46.188Z,75.18
2023-03-02T11:18:26.507Z,74.99
2023-03-02T11:21:00.597Z,75.38
2023-03-02T11:23:41.200Z,76.05
2023-03-02T11:26:17.077Z,75.31
2023-03-02T11:28:55.972Z,74.99
2023-03-02T11:31:35.277Z,74.82
2023-03-02T11:34:27.443Z,74.70
2023-03-02T11:37:18.725Z,74.12
2023-03-02T11:40:06.228Z,74.62
2023-03-02T11:42:38.248Z,73.80
2023-03-02T11:45:21.675Z,72.68
2023-03-02T11:48:02.488Z,72.68
2023-03-02T11:50:33.020Z,73.67
2023-03-02T11:53:05.444Z,73.31
2023-03-02T11:55:40.864Z,72.78
2023-03-02T11:58:14.382Z,72.28
2023-03-02T12:00:44.305Z,72.39
2023-03-02T12:03:40.040Z,73.14
2023-03-02T12:06:28.642Z,72.51
2023-03-02T12:09:13.172Z,73.16
2023-03-02T12:11:42.620Z,72.47
2023-03-02T12:14:29.844Z,72.04
2023-03-02T12:17:08.556Z,71.58
2023-03-02T12:19:45.333Z,70.53
2023-03-02T12:22:14.678Z,70.95
2023-03-02T12:24:45.728Z,70.94
2023-03-02T12:27:28.866Z,71.47
2023-03-02T12:30:12.476Z,70.50
2023-03-02T12:32:40.873Z,70.37
2023-03-02T12:35:17.178Z,69.80
2023-03-02T12:37:49.792Z,69.45
2023-03-02T12:40:41.195Z,68.52
2023-03-02T12:43:28.084Z,69.01
2023-03-02T12:46:29.658Z,69.48
2023-03-02T12:49:28.673Z,69.49
2023-03-02T12:52:02.923Z,69.08
2023-03-02T12:54:34.312Z,68.34
2023-03-02T12:57:09.166Z,68.25
2023-03-02T12:59:38.187Z,67.65
2023-03-02T13:02:18.492Z,67.47
2023-03-02T13:04:54.050Z,67.43
2023-03-02T13:07:27.838Z,67.62
2023-03-02T13:09:59.162Z,67.63
2023-03-02T13:12:29.990Z,67.11
2023-03-02T13:15:00.662Z,66.78
2023-03-02T13:17:31.821Z,66.44
2023-03-02T13:20:02.346Z,65.33
2023-03-02T13:22:32.363Z,65.20
2023-03-02T13:25:05.367Z,63.26
2023-03-02T13:27:34.023Z,61.88
2023-03-02T13:30:21.124Z,60.44
2023-03-02T13:32:51.013Z,58.78
2023-03-02T13:35:26.376Z,57.65
2023-03-02T13:38:06.109Z,57.90
2023-03-02T13:40:44.909Z,57.28
2023-03-02T13:43:36.824Z,55.99
2023-03-02T13:46:24.700Z,54.81
2023-03-02T13:49:09.218Z,53.87
2023-03-02T13:51:42.036Z,52.21
2023-03-02T13:54:23.078Z,51.64
2023-03-02T13:56:53.721Z,50.76
2023-03-02T13:59:23.489Z,49.60
2023-03-02T14:01:52.570Z,48.57
2023-03-02T14:04:24.357Z,48.12
2023-03-02T14:06:54.870Z,49.75
2023-03-02T14:09:27.205Z,51.59
2023-03-02T14:11:58.194Z,53.94
2023-03-02T14:14:30.167Z,55.02
2023-03-02T14:16:58.741Z,56.53
2023-03-02T14:19:27.202Z,57.55
2023-03-02T14:21:55.589Z,58.29
2023-03-02T14:24:26.634Z,59.29
2023-03-02T14:26:54.922Z,60.07
2023-03-02T14:29:27.290Z,61.26
2023-03-02T14:31:56.799Z,61.11
2023-03-02T14:34:25.484Z,61.95
2023-03-02T14:36:56.138Z,62.63
2023-03-02T14:39:38.507Z,62.73
2023-03-02T14:42:11.326Z,63.39
2023-03-02T14:44:39.738Z,63.71
2023-03-02T14:47:10.070Z,64.01
2023-03-02T14:49:39.052Z,64.94
2023-03-02T14:52:13.844Z,64.43
2023-03-02T14:54:48.271Z,64.74
2023-03-02T14:57:21.657Z,65.93
2023-03-02T14:59:50.606Z,65.52
2023-03-02T15:02:25.761Z,65.46
2023-03-02T15:04:57.170Z,66.46
2023-03-02T15:07:27.994Z,66.32
2023-03-02T15:09:58.801Z,67.83
2023-03-02T15:12:27.307Z,66.94
2023-03-02T15:14:55.590Z,66.93
2023-03-02T15:17:24.016Z,66.83
2023-03-02T15:19:52.333Z,67.53
2023-03-02T15:22:21.570Z,68.08
2023-03-02T15:24:49.905Z,68.10
2023-03-02T15:27:19.612Z,68.79
2023-03-02T15:29:48.561Z,68.90
2023-03-02T15:32:17.729Z,68.64
2023-03-02T15:34:46.180Z,69.16
2023-03-02T15:37:14.541Z,68.40
2023-03-02T15:39:44.444Z,69.08
2023-03-02T15:42:14.075Z,69.86
2023-03-02T15:44:43.804Z,69.35
2023-03-02T15:47:12.812Z,69.72
2023-03-02T15:49:41.291Z,69.37
2023-03-02T15:52:09.987Z,70.18
2023-03-02T15:54:38.284Z,69.34
2023-03-02T15:57:07.868Z,69.57
2023-03-02T15:59:36.687Z,71.06
2023-03-02T16:02:06.745Z,69.80
2023-03-02T16:04:35.333Z,70.03
2023-03-02T16:07:04.217Z,69.91
2023-03-02T16:09:32.771Z,70.73
2023-03-02T16:12:01.590Z,70.82
2023-03-02T16:14:29.872Z,71.04
2023-03-02T16:16:58.383Z,72.36
2023-03-02T16:19:28.105Z,72.01
2023-03-02T16:21:56.437Z,72.35
2023-03-02T16:24:25.451Z,72.41
2023-03-02T16:26:54.877Z,73.11
2023-03-02T16:29:24.331Z,73.40
2023-03-02T16:31:52.917Z,72.97
2023-03-02T16:34:21.318Z,73.00
2023-03-02T16:36:51.133Z,73.53
2023-03-02T16:39:19.512Z,73.97
2023-03-02T16:41:47.813Z,73.81
2023-03-02T16:44:16.271Z,74.47
2023-03-02T16:46:44.963Z,74.39
2023-03-02T16:49:14.460Z,74.41
2023-03-02T16:51:44.109Z,75.18
2023-03-02T16:54:17.543Z,74.58
2023-03-02T16:56:47.434Z,75.48
2023-03-02T16:59:16.043Z,75.49
2023-03-02T17:01:44.585Z,75.76
2023-03-02T17:04:13.123Z,75.93
2023-03-02T17:07:03.681Z,76.33
2023-03-02T17:09:44.226Z,76.15
2023-03-02T17:12:12.627Z,76.52
2023-03-02T17:14:41.123Z,77.03
2023-03-02T17:17:09.640Z,76.97
2023-03-02T17:19:38.116Z,77.11
2023-03-02T17:22:06.479Z,77.46
2023-03-02T17:24:36.466Z,77.57
2023-03-02T17:27:13.059Z,77.34
2023-03-02T17:29:47.474Z,77.26
2023-03-02T17:32:15.835Z,77.85
2023-03-02T17:34:44.267Z,77.93
2023-03-02T17:37:12.754Z,78.20
2023-03-02T17:39:42.966Z,77.89
2023-03-02T17:42:11.258Z,78.97
2023-03-02T17:44:40.349Z,79.13
2023-03-02T17:47:09.025Z,78.57
2023-03-02T17:49:40.399Z,79.09
2023-03-02T17:52:08.978Z,79.02
2023-03-02T17:54:37.311Z,79.56
2023-03-02T17:57:07.053Z,79.21
2023-03-02T17:59:35.614Z,80.39
2023-03-02T18:02:04.084Z,80.12
2023-03-02T18:04:32.475Z,80.07
2023-03-02T18:07:01.662Z,80.62
2023-03-02T18:09:30.048Z,79.93
2023-03-02T18:11:58.452Z,80.82
2023-03-02T18:14:28.502Z,80.49
2023-03-02T18:16:56.881Z,80.63
2023-03-02T18:19:25.233Z,81.71
2023-03-02T18:21:53.828Z,80.82
2023-03-02T18:24:22.154Z,81.75
2023-03-02T18:26:50.898Z,81.80
2023-03-02T18:29:19.241Z,81.61
2023-03-02T18:31:49.701Z,81.99
2023-03-02T18:34:19.784Z,82.58
2023-03-02T18:36:48.908Z,81.47
2023-03-02T18:39:17.354Z,82.33
2023-03-02T18:41:45.713Z,82.32
2023-03-02T18:44:14.015Z,82.88
2023-03-02T18:46:42.378Z,82.22
2023-03-02T18:49:12.184Z,82.47
2023-03-02T18:51:40.578Z,83.09
2023-03-02T18:54:08.966Z,83.37
2023-03-02T18:56:39.074Z,82.84
2023-03-02T18:59:09.532Z,83.55
2023-03-02T19:01:38.120Z,83.04
2023-03-02T19:04:07.084Z,83.02
2023-03-02T19:06:36.923Z,83.64
2023-03-02T19:09:05.377Z,84.38
2023-03-02T19:11:33.765Z,83.85
2023-03-02T19:14:02.239Z,84.73
2023-03-02T19:16:30.659Z,84.33
2023-03-02T19:18:59.292Z,84.46
2023-03-02T19:21:27.726Z,84.78
2023-03-02T19:23:57.494Z,84.13
2023-03-02T19:26:25.953Z,83.83
2023-03-02T19:28:55.070Z,84.27
2023-03-02T19:31:23.644Z,83.41
2023-03-02T19:33:52.074Z,83.99
2023-03-02T19:36:20.615Z,83.65
2023-03-02T19:38:48.887Z,84.17
2023-03-02T19:41:20.406Z,84.39
2023-03-02T19:43:49.369Z,84.49
2023-03-02T19:46:19.132Z,84.54
2023-03-02T19:48:47.538Z,83.82
2023-03-02T19:51:17.388Z,83.46
2023-03-02T19:53:47.137Z,83.90
2023-03-02T19:56:18.499Z,83.83
2023-03-02T19:58:53.538Z,84.72
2023-03-02T20:01:24.790Z,84.62
2023-03-02T20:03:54.424Z,84.41
2023-03-02T20:06:25.576Z,84.03
2023-03-02T20:08:54.463Z,84.28
2023-03-02T20:11:25.181Z,84.07
2023-03-02T20:13:53.857Z,84.96
2023-03-02T20:16:23.357Z,84.79
2023-03-02T20:18:52.050Z,85.05
2023-03-02T20:21:21.462Z,84.65
2023-03-02T20:23:49.940Z,84.82
2023-03-02T20:26:18.424Z,84.12
2023-03-02T20:28:49.028Z,84.82
2023-03-02T20:31:18.035Z,83.91
2023-03-02T20:33:49.600Z,84.75
2023-03-02T20:36:23.513Z,84.44
2023-03-02T20:38:59.162Z,85.26
2023-03-02T20:41:28.256Z,85.10
2023-03-02T20:43:58.437Z,85.19
2023-03-02T20:46:30.124Z,84.97
2023-03-02T20:48:59.221Z,84.52
2023-03-02T20:51:28.855Z,85.36
2023-03-02T20:53:57.631Z,85.02
2023-03-02T20:56:26.752Z,85.10
2023-03-02T20:58:55.387Z,85.06
2023-03-02T21:01:25.970Z,85.03
2023-03-02T21:03:54.445Z,85.23
2023-03-02T21:06:23.036Z,84.44
2023-03-02T21:08:52.601Z,84.87
2023-03-02T21:11:22.398Z,85.17
2023-03-02T21:13:51.150Z,84.22
2023-03-02T21:16:23.593Z,84.43
2023-03-02T21:18:55.203Z,84.80
2023-03-02T21:21:40.387Z,85.19
2023-03-02T21:24:11.121Z,85.40
2023-03-02T21:26:41.617Z,84.77
2023-03-02T21:29:12.183Z,84.94
2023-03-02T21:31:42.296Z,84.73
2023-03-02T21:34:13.638Z,85.68
2023-03-02T21:36:42.259Z,84.87
2023-03-02T21:39:12.486Z,84.70
2023-03-02T21:41:41.172Z,85.29
2023-03-02T21:44:09.540Z,85.30
2023-03-02T21:46:39.536Z,84.89
2023-03-02T21:49:08.774Z,84.93
2023-03-02T21:51:38.505Z,84.44
2023-03-02T21:54:07.042Z,85.56
2023-03-02T21:56:35.537Z,85.53
2023-03-02T21:59:05.119Z,84.56
2023-03-02T22:01:33.888Z,84.88
2023-03-02T22:04:02.705Z,84.84
2023-03-02T22:06:33.655Z,85.60
2023-03-02T22:09:03.910Z,84.85
2023-03-02T22:11:36.018Z,85.60
2023-03-02T22:14:12.626Z,85.59
2023-03-02T22:16:43.281Z,85.55
2023-03-02T22:19:26.465Z,84.55
2023-03-02T22:21:56.150Z,85.33
2023-03-02T22:24:28.804Z,85.28
2023-03-02T22:27:01.816Z,84.97
2023-03-02T22:29:33.887Z,85.59
2023-03-02T22:32:19.447Z,85.45
2023-03-02T22:34:49.622Z,85.32
2023-03-02T22:37:19.766Z,85.43
2023-03-02T22:39:51.040Z,85.50
2023-03-02T22:42:22.115Z,85.48
2023-03-02T22:45:03.836Z,84.72
2023-03-02T22:47:32.412Z,85.51
2023-03-02T22:50:07.746Z,84.80
2023-03-02T22:52:41.895Z,85.71
2023-03-02T22:55:36.426Z,85.67
2023-03-02T22:58:46.769Z,85.07
2023-03-02T23:01:22.797Z,85.80
2023-03-02T23:03:53.820Z,85.27
2023-03-02T23:06:31.505Z,85.51
2023-03-02T23:09:02.674Z,85.36
2023-03-02T23:11:40.983Z,85.10
2023-03-02T23:14:20.232Z,85.62
2023-03-02T23:16:56.483Z,85.27
2023-03-02T23:19:26.517Z,84.86
2023-03-02T23:21:55.368Z,84.84
2023-03-02T23:24:23.962Z,85.25
2023-03-02T23:26:54.264Z,84.91
2023-03-02T23:29:23.224Z,84.85
2023-03-02T23:31:52.071Z,85.61
2023-03-02T23:34:21.573Z,85.37
2023-03-02T23:36:50.004Z,85.74
2023-03-02T23:39:18.698Z,85.11
2023-03-02T23:41:47.309Z,85.15
2023-03-02T23:44:19.374Z,85.48
2023-03-02T23:46:48.620Z,85.19
2023-03-02T23:49:17.961Z,85.12
2023-03-02T23:51:46.519Z,84.96
2023-03-02T23:54:16.009Z,85.41
2023-03-02T23:56:44.953Z,86.02
2023-03-02T23:59:13.355Z,85.41
